Time;durP1;ratioP1;P1;durP2;ratioP2;P2;SDS_P1;SDS_P2;PMS_P1;PMS_P2;Temp;Humidity;BMP_temperature;BMP_pressure;BME280_temperature;BME280_humidity;BME280_pressure;Samples;Min_cycle;Max_cycle;Signal;HPM_P1;HPM_P2
2023/02/06 00:01:13;;;;;;;24.80;17.37;;;4.40;99.90;;;;;;4994579;28;20486;-63
2023/02/06 00:03:39;;;;;;;22.77;16.63;;;4.70;99.90;;;;;;5017789;28;20301;-64
2023/02/06 00:06:05;;;;;;;20.63;15.70;;;4.60;99.90;;;;;;5017702;28;20679;-64
2023/02/06 00:08:31;;;;;;;24.00;17.47;;;4.40;99.90;;;;;;5012348;28;20684;-64
2023/02/06 00:10:56;;;;;;;26.03;17.03;;;4.10;99.90;;;;;;5000541;28;20477;-64
2023/02/06 00:13:22;;;;;;;25.77;17.60;;;4.40;99.90;;;;;;5012900;28;20193;-64
2023/02/06 00:15:47;;;;;;;27.73;18.03;;;4.50;99.90;;;;;;5021077;28;20213;-64
2023/02/06 00:18:13;;;;;;;27.70;18.97;;;4.40;99.90;;;;;;5016794;28;20197;-63
2023/02/06 00:20:39;;;;;;;26.60;18.10;;;3.70;99.90;;;;;;5016643;28;20181;-64
2023/02/06 00:23:04;;;;;;;28.27;18.83;;;3.90;99.90;;;;;;5018140;28;20267;-64
2023/02/06 00:25:30;;;;;;;23.87;17.23;;;4.50;99.90;;;;;;5013881;28;20280;-64
2023/02/06 00:27:55;;;;;;;25.17;16.97;;;4.30;99.90;;;;;;5012569;28;20687;-63
2023/02/06 00:30:21;;;;;;;25.97;18.43;;;4.60;99.90;;;;;;5014686;28;20211;-63
2023/02/06 00:32:46;;;;;;;24.00;18.03;;;4.30;99.90;;;;;;4997396;28;20188;-63
2023/02/06 00:35:12;;;;;;;22.27;17.43;;;3.90;99.90;;;;;;5015771;28;20272;-63
2023/02/06 00:37:37;;;;;;;28.30;18.07;;;4.00;99.90;;;;;;5017220;28;20205;-63
2023/02/06 00:40:03;;;;;;;25.03;17.50;;;4.50;99.90;;;;;;5013680;28;20284;-64
2023/02/06 00:42:29;;;;;;;24.10;17.08;;;4.60;99.90;;;;;;5016050;28;20618;-63
2023/02/06 00:44:54;;;;;;;27.80;18.57;;;4.60;99.90;;;;;;5015121;28;20186;-64
2023/02/06 00:47:20;;;;;;;23.77;17.20;;;4.80;99.90;;;;;;5013058;28;20214;-63
2023/02/06 00:49:46;;;;;;;27.53;19.00;;;4.00;99.90;;;;;;5014873;28;20213;-63
2023/02/06 00:52:11;;;;;;;30.93;19.13;;;4.50;99.90;;;;;;5018999;28;20218;-64
2023/02/06 00:54:37;;;;;;;25.30;16.87;;;4.70;99.90;;;;;;5014473;28;20189;-64
2023/02/06 00:57:02;;;;;;;28.50;17.63;;;4.00;99.90;;;;;;5016798;28;20211;-64
2023/02/06 00:59:28;;;;;;;25.67;17.47;;;4.50;99.90;;;;;;5017014;28;20188;-64
2023/02/06 01:01:53;;;;;;;28.77;19.07;;;4.50;99.90;;;;;;5019205;28;20189;-64
2023/02/06 01:04:19;;;;;;;27.30;18.50;;;4.40;99.90;;;;;;5013287;28;20274;-64
2023/02/06 01:06:45;;;;;;;30.27;19.53;;;4.50;99.90;;;;;;5019329;28;20203;-63
2023/02/06 01:09:10;;;;;;;28.90;19.97;;;4.50;99.90;;;;;;5017654;28;20277;-64
2023/02/06 01:11:36;;;;;;;27.33;19.27;;;4.40;99.90;;;;;;5013453;28;20193;-63
2023/02/06 01:14:01;;;;;;;27.40;19.00;;;4.10;99.90;;;;;;5015802;28;20214;-64
2023/02/06 01:16:27;;;;;;;28.40;18.53;;;4.60;99.90;;;;;;5017567;28;20585;-64
2023/02/06 01:18:53;;;;;;;31.27;19.43;;;4.00;99.90;;;;;;5021591;28;20758;-64
2023/02/06 01:21:23;;;;;;;27.57;18.83;;;3.90;99.90;;;;;;5020100;28;20450;-65
2023/02/06 01:23:51;;;;;;;31.42;19.58;;;4.40;99.90;;;;;;5015403;28;20622;-66
2023/02/06 01:26:19;;;;;;;34.15;21.08;;;4.80;99.90;;;;;;5014895;28;20217;-64
2023/02/06 01:28:46;;;;;;;30.75;19.42;;;4.30;99.90;;;;;;5014538;28;20216;-64
2023/02/06 01:31:22;;;;;;;30.30;21.13;;;4.80;99.90;;;;;;4994700;28;20273;-64
2023/02/06 01:33:49;;;;;;;29.13;19.35;;;4.30;99.90;;;;;;5013576;28;20244;-65
2023/02/06 01:36:15;;;;;;;31.40;20.55;;;4.50;99.90;;;;;;5021740;28;20231;-65
2023/02/06 01:38:41;;;;;;;29.38;20.50;;;4.60;99.90;;;;;;4997224;28;20179;-65
2023/02/06 01:41:08;;;;;;;29.60;19.23;;;4.40;99.90;;;;;;5018955;28;20656;-65
2023/02/06 01:43:40;;;;;;;32.25;21.50;;;4.50;99.90;;;;;;5018572;28;20199;-65
2023/02/06 01:46:06;;;;;;;31.10;20.00;;;3.90;99.90;;;;;;5015809;28;20199;-65
2023/02/06 01:48:41;;;;;;;28.15;19.48;;;3.90;99.90;;;;;;5011806;28;20200;-65
2023/02/06 01:51:11;;;;;;;31.50;19.83;;;4.40;99.90;;;;;;5014484;28;20179;-65
2023/02/06 01:53:37;;;;;;;34.03;20.95;;;4.30;99.90;;;;;;5018910;28;20207;-65
2023/02/06 01:56:06;;;;;;;30.08;20.58;;;3.80;99.90;;;;;;5017713;28;20689;-65
2023/02/06 01:58:38;;;;;;;31.25;21.92;;;4.50;99.90;;;;;;5012037;28;20245;-64
2023/02/06 02:01:05;;;;;;;37.28;21.60;;;4.60;99.90;;;;;;5012398;28;20191;-64
2023/02/06 02:03:34;;;;;;;38.05;22.25;;;4.50;99.90;;;;;;5013369;28;20271;-65
2023/02/06 02:06:05;;;;;;;33.38;21.33;;;3.70;99.90;;;;;;5015330;28;20569;-65
2023/02/06 02:08:42;;;;;;;32.95;20.05;;;4.30;99.90;;;;;;5014343;28;20183;-65
2023/02/06 02:11:10;;;;;;;29.55;18.92;;;4.20;99.90;;;;;;5017550;28;20641;-65
2023/02/06 02:13:37;;;;;;;29.85;21.00;;;4.60;99.90;;;;;;5016662;28;20769;-66
2023/02/06 02:16:16;;;;;;;33.53;20.73;;;4.50;99.90;;;;;;5012493;28;20711;-64
2023/02/06 02:18:51;;;;;;;34.50;21.02;;;4.50;99.90;;;;;;5013131;28;20188;-66
2023/02/06 02:21:50;;;;;;;38.90;21.15;;;4.60;99.90;;;;;;5016626;28;20194;-65
2023/02/06 02:24:49;;;;;;;30.80;20.20;;;4.50;99.90;;;;;;5014545;28;20195;-63
2023/02/06 02:27:38;;;;;;;32.38;20.42;;;4.30;99.90;;;;;;5011884;28;20708;-66
2023/02/06 02:30:32;;;;;;;35.75;20.95;;;4.30;99.90;;;;;;5018173;28;20716;-62
2023/02/06 02:33:19;;;;;;;33.38;19.75;;;4.40;99.90;;;;;;4984092;28;20195;-63
2023/02/06 02:36:07;;;;;;;29.23;19.25;;;4.30;99.90;;;;;;5015313;28;20198;-64
2023/02/06 02:38:40;;;;;;;34.45;20.77;;;4.20;99.90;;;;;;5019904;28;20241;-63
2023/02/06 02:41:17;;;;;;;34.53;21.33;;;4.50;99.90;;;;;;5015463;28;20265;-63
2023/02/06 02:43:48;;;;;;;34.97;21.35;;;4.20;99.90;;;;;;5022725;28;20215;-63
2023/02/06 02:46:20;;;;;;;32.08;20.10;;;4.70;99.90;;;;;;5018666;28;20212;-63
2023/02/06 02:48:48;;;;;;;30.95;20.75;;;4.50;99.90;;;;;;5018044;28;20219;-63
2023/02/06 02:51:15;;;;;;;32.72;19.65;;;4.80;99.90;;;;;;5020898;28;20192;-66
2023/02/06 02:53:40;;;;;;;35.40;22.15;;;4.60;99.90;;;;;;5016668;28;20190;-63
2023/02/06 02:56:20;;;;;;;33.50;21.10;;;3.60;99.90;;;;;;5019352;28;20484;-63
2023/02/06 02:58:52;;;;;;;30.75;20.95;;;4.30;99.90;;;;;;5023652;28;20202;-63
2023/02/06 03:01:24;;;;;;;36.67;20.85;;;4.70;99.90;;;;;;5017124;28;20205;-64
2023/02/06 03:03:52;;;;;;;33.08;20.30;;;4.30;99.90;;;;;;5016660;28;20189;-64
2023/02/06 03:06:43;;;;;;;28.10;19.67;;;4.90;99.90;;;;;;5018515;28;20216;-64
2023/02/06 03:09:27;;;;;;;31.80;20.00;;;4.50;99.90;;;;;;5017664;28;20215;-63
2023/02/06 03:12:08;;;;;;;31.27;19.85;;;4.60;99.90;;;;;;5020252;28;20724;-64
2023/02/06 03:14:49;;;;;;;33.67;20.58;;;4.50;99.90;;;;;;5016820;28;20189;-64
2023/02/06 03:17:23;;;;;;;32.33;18.75;;;4.30;99.90;;;;;;5017530;28;20211;-63
2023/02/06 03:19:55;;;;;;;31.50;19.85;;;3.60;99.90;;;;;;5017441;28;20240;-63
2023/02/06 03:22:23;;;;;;;31.88;20.63;;;3.80;99.90;;;;;;5014397;28;20223;-64
2023/02/06 03:24:51;;;;;;;32.35;19.73;;;5.00;99.90;;;;;;5017312;28;20191;-63
2023/02/06 03:27:19;;;;;;;29.88;20.10;;;4.50;99.90;;;;;;5013444;28;20219;-64
2023/02/06 03:29:47;;;;;;;29.90;19.90;;;3.90;99.90;;;;;;5018765;28;20681;-65
2023/02/06 03:32:26;;;;;;;29.83;18.98;;;4.70;99.90;;;;;;5015918;28;20180;-65
2023/02/06 03:35:18;;;;;;;28.92;19.48;;;4.40;99.90;;;;;;5015671;28;20274;-64
2023/02/06 03:37:44;;;;;;;29.35;19.98;;;3.60;99.90;;;;;;5005824;28;20258;-64
2023/02/06 03:40:10;;;;;;;32.38;21.33;;;4.50;99.90;;;;;;5014138;28;20190;-64
2023/02/06 03:42:48;;;;;;;31.58;20.95;;;4.40;99.90;;;;;;5017921;28;20187;-64
2023/02/06 03:45:34;;;;;;;33.08;22.10;;;4.50;99.90;;;;;;5015113;28;20195;-63
2023/02/06 03:48:08;;;;;;;31.63;20.33;;;4.40;99.90;;;;;;5013910;28;20197;-64
2023/02/06 03:50:36;;;;;;;28.63;19.88;;;3.60;99.90;;;;;;5014797;28;20202;-64
2023/02/06 03:53:03;;;;;;;26.83;19.50;;;4.20;99.90;;;;;;5013649;28;20191;-64
2023/02/06 03:55:29;;;;;;;31.52;20.50;;;4.40;99.90;;;;;;5017474;28;20256;-63
2023/02/06 03:58:00;;;;;;;28.55;19.13;;;3.90;99.90;;;;;;5014395;28;20207;-65
2023/02/06 04:00:27;;;;;;;37.10;23.08;;;4.40;99.90;;;;;;5017901;28;20693;-65
2023/02/06 04:02:55;;;;;;;29.77;19.70;;;3.90;99.90;;;;;;5013536;28;20193;-64
2023/02/06 04:05:21;;;;;;;30.77;20.33;;;4.40;99.90;;;;;;5015985;28;20736;-64
2023/02/06 04:07:47;;;;;;;28.33;20.10;;;4.60;99.90;;;;;;5013831;28;20179;-64
2023/02/06 04:10:12;;;;;;;28.30;20.03;;;4.40;99.90;;;;;;5020120;28;20212;-64
2023/02/06 04:12:38;;;;;;;31.70;21.13;;;5.10;99.90;;;;;;5022052;28;20601;-63
2023/02/06 04:15:04;;;;;;;29.87;20.23;;;4.50;99.90;;;;;;5012749;28;20201;-65
2023/02/06 04:17:29;;;;;;;30.77;20.05;;;4.30;99.90;;;;;;5014498;28;20783;-64
2023/02/06 04:19:55;;;;;;;27.20;19.60;;;3.90;99.90;;;;;;5014139;28;20191;-64
2023/02/06 04:22:20;;;;;;;29.60;19.80;;;4.30;99.90;;;;;;5020792;28;20199;-64
2023/02/06 04:24:46;;;;;;;34.23;20.10;;;4.60;99.90;;;;;;5020406;28;20295;-63
2023/02/06 04:27:13;;;;;;;29.17;20.20;;;4.20;99.90;;;;;;5016610;28;21583;-64
2023/02/06 04:29:39;;;;;;;28.77;21.23;;;4.60;99.90;;;;;;5011797;28;20252;-63
2023/02/06 04:32:05;;;;;;;27.80;19.80;;;4.40;99.90;;;;;;5019777;28;20184;-64
2023/02/06 04:34:32;;;;;;;32.67;21.13;;;4.40;99.90;;;;;;4998158;28;20296;-64
2023/02/06 04:36:59;;;;;;;28.65;19.75;;;4.30;99.90;;;;;;5020580;28;20247;-63
2023/02/06 04:39:25;;;;;;;31.08;22.17;;;4.30;99.90;;;;;;5012755;28;20224;-63
2023/02/06 04:41:51;;;;;;;29.40;20.90;;;4.00;99.90;;;;;;5001279;28;20212;-63
2023/02/06 04:44:17;;;;;;;33.80;21.60;;;3.90;99.90;;;;;;5014710;28;20623;-63
2023/02/06 04:46:43;;;;;;;29.52;20.70;;;4.30;99.90;;;;;;5012781;28;21016;-63
2023/02/06 04:49:09;;;;;;;32.97;22.02;;;3.60;99.90;;;;;;5018283;28;20218;-63
2023/02/06 04:51:35;;;;;;;26.63;19.40;;;4.00;99.90;;;;;;5013787;28;20661;-63
2023/02/06 04:54:02;;;;;;;29.08;19.75;;;4.20;99.90;;;;;;5013077;28;20277;-65
2023/02/06 04:56:27;;;;;;;30.65;20.80;;;4.30;99.90;;;;;;5014916;28;20205;-65
2023/02/06 04:58:53;;;;;;;29.10;19.60;;;4.20;99.90;;;;;;5016635;28;20205;-65
2023/02/06 05:01:19;;;;;;;30.27;20.23;;;4.30;99.90;;;;;;5015467;28;20186;-63
2023/02/06 05:03:45;;;;;;;31.50;20.80;;;4.40;99.90;;;;;;5023442;28;20192;-64
2023/02/06 05:06:11;;;;;;;31.38;22.50;;;3.90;99.90;;;;;;5012949;28;20466;-64
2023/02/06 05:08:37;;;;;;;33.83;22.75;;;4.00;99.90;;;;;;5018638;28;20526;-64
2023/02/06 05:11:03;;;;;;;30.10;20.90;;;4.60;99.90;;;;;;5015881;28;20181;-66
2023/02/06 05:13:28;;;;;;;33.00;20.97;;;3.90;99.90;;;;;;5010987;28;20498;-66
2023/02/06 05:15:56;;;;;;;29.00;20.47;;;4.40;99.90;;;;;;5015270;28;20208;-64
2023/02/06 05:18:22;;;;;;;28.33;20.00;;;4.20;99.90;;;;;;5019570;28;20282;-64
2023/02/06 05:20:48;;;;;;;25.45;20.63;;;4.20;99.90;;;;;;5013925;28;20271;-63
2023/02/06 05:23:14;;;;;;;28.20;20.60;;;4.20;99.90;;;;;;5018139;28;20334;-64
2023/02/06 05:25:39;;;;;;;31.63;22.43;;;4.00;99.90;;;;;;5016853;28;20235;-63
2023/02/06 05:28:06;;;;;;;30.57;22.33;;;3.60;99.90;;;;;;5019328;28;20188;-63
2023/02/06 05:30:34;;;;;;;33.78;21.83;;;4.00;99.90;;;;;;5014574;28;20705;-64
2023/02/06 05:33:00;;;;;;;27.02;21.48;;;3.80;99.90;;;;;;5000657;28;20196;-63
2023/02/06 05:35:25;;;;;;;29.50;21.37;;;4.10;99.90;;;;;;5021854;28;20234;-65
2023/02/06 05:37:51;;;;;;;28.63;21.57;;;4.10;99.90;;;;;;5018408;28;20302;-63
2023/02/06 05:40:17;;;;;;;29.40;20.73;;;4.20;99.90;;;;;;5019207;28;20450;-63
2023/02/06 05:42:42;;;;;;;30.77;22.37;;;4.00;99.90;;;;;;5014758;28;20182;-63
2023/02/06 05:45:08;;;;;;;28.37;21.50;;;3.80;99.90;;;;;;5016008;28;20202;-64
2023/02/06 05:47:34;;;;;;;29.73;20.70;;;3.40;99.90;;;;;;5014865;28;20233;-64
2023/02/06 05:49:59;;;;;;;28.63;20.90;;;3.60;99.90;;;;;;5017568;28;20215;-63
2023/02/06 05:52:25;;;;;;;29.50;21.60;;;4.00;99.90;;;;;;4995159;28;20248;-64
2023/02/06 05:54:51;;;;;;;26.93;20.27;;;3.80;99.90;;;;;;5021372;28;20268;-63
2023/02/06 05:57:16;;;;;;;29.17;21.37;;;3.40;99.90;;;;;;5017673;28;20260;-64
2023/02/06 05:59:42;;;;;;;26.80;20.90;;;3.90;99.90;;;;;;5018242;28;20312;-64
2023/02/06 06:02:08;;;;;;;31.80;22.33;;;4.00;99.90;;;;;;5018215;28;20604;-63
2023/02/06 06:04:33;;;;;;;30.90;22.23;;;4.00;99.90;;;;;;5016551;28;20274;-65
2023/02/06 06:06:59;;;;;;;28.77;20.13;;;3.50;99.90;;;;;;5015324;28;21049;-63
2023/02/06 06:09:25;;;;;;;27.67;19.70;;;4.00;99.90;;;;;;5016638;28;20294;-65
2023/02/06 06:11:51;;;;;;;25.80;19.90;;;4.10;99.90;;;;;;5022742;28;20269;-63
2023/02/06 06:14:17;;;;;;;29.33;22.27;;;3.20;99.90;;;;;;5022385;28;20209;-63
2023/02/06 06:16:42;;;;;;;29.40;21.58;;;3.50;99.90;;;;;;5026907;28;20217;-64
2023/02/06 06:19:08;;;;;;;30.43;22.57;;;3.70;99.90;;;;;;5016165;28;20640;-63
2023/02/06 06:21:34;;;;;;;30.10;22.93;;;3.80;99.90;;;;;;5020828;28;20609;-63
2023/02/06 06:24:00;;;;;;;31.73;21.90;;;3.90;99.90;;;;;;5019667;28;20461;-66
2023/02/06 06:26:26;;;;;;;28.77;22.33;;;3.90;99.90;;;;;;5015818;28;20975;-63
2023/02/06 06:28:52;;;;;;;26.67;20.20;;;3.50;99.90;;;;;;5022811;28;20221;-62
2023/02/06 06:31:18;;;;;;;28.20;20.77;;;3.90;99.90;;;;;;5018441;28;20745;-65
2023/02/06 06:33:44;;;;;;;29.73;22.23;;;4.20;99.90;;;;;;5018388;28;20195;-63
2023/02/06 06:36:11;;;;;;;26.65;20.58;;;3.80;99.90;;;;;;5019825;28;20208;-63
2023/02/06 06:38:36;;;;;;;25.08;20.63;;;4.20;99.90;;;;;;5019450;28;20245;-63
2023/02/06 06:41:02;;;;;;;26.07;19.63;;;4.20;99.90;;;;;;5015138;28;20184;-62
2023/02/06 06:43:28;;;;;;;23.33;18.80;;;3.90;99.90;;;;;;5021480;28;20616;-62
2023/02/06 06:45:53;;;;;;;25.73;18.77;;;3.90;99.90;;;;;;5015525;28;20552;-62
2023/02/06 06:48:19;;;;;;;25.33;19.50;;;3.80;99.90;;;;;;5021361;28;20197;-64
2023/02/06 06:50:45;;;;;;;26.13;19.20;;;4.00;99.90;;;;;;5021637;28;20215;-63
2023/02/06 06:53:10;;;;;;;21.87;17.90;;;4.40;99.90;;;;;;5020990;28;20192;-68
2023/02/06 06:55:36;;;;;;;21.30;17.03;;;3.80;99.90;;;;;;5022716;28;20717;-66
2023/02/06 06:58:01;;;;;;;24.93;20.00;;;4.00;99.90;;;;;;5013340;28;20191;-65
2023/02/06 07:00:27;;;;;;;22.87;19.10;;;3.80;99.90;;;;;;5020866;28;20191;-64
2023/02/06 07:02:53;;;;;;;24.50;18.50;;;4.10;99.90;;;;;;5023636;28;20654;-66
2023/02/06 07:05:18;;;;;;;26.37;19.50;;;3.50;99.90;;;;;;5020052;28;20438;-66
2023/02/06 07:07:44;;;;;;;24.23;18.37;;;4.20;99.90;;;;;;4994546;28;20318;-67
2023/02/06 07:10:10;;;;;;;23.73;18.10;;;4.00;99.90;;;;;;5018750;28;20209;-68
2023/02/06 07:12:37;;;;;;;26.77;17.70;;;4.60;99.90;;;;;;5000072;28;20184;-65
2023/02/06 07:15:03;;;;;;;21.70;16.70;;;4.30;99.90;;;;;;5023114;28;20220;-66
2023/02/06 07:17:29;;;;;;;21.35;16.88;;;4.10;99.90;;;;;;5001601;28;20199;-69
2023/02/06 07:19:55;;;;;;;21.23;16.33;;;4.10;99.90;;;;;;5022041;28;20189;-66
2023/02/06 07:22:20;;;;;;;20.73;15.63;;;4.10;99.90;;;;;;5015421;28;20582;-66
2023/02/06 07:24:46;;;;;;;24.73;15.83;;;4.30;99.90;;;;;;5025023;28;20198;-68
2023/02/06 07:27:11;;;;;;;22.80;16.23;;;4.20;99.90;;;;;;4996230;28;20209;-65
2023/02/06 07:29:37;;;;;;;23.03;16.70;;;4.30;99.90;;;;;;5015164;28;20222;-64
2023/02/06 07:32:04;;;;;;;21.73;16.80;;;4.10;99.90;;;;;;5016207;28;20510;-63
2023/02/06 07:34:29;;;;;;;19.98;15.73;;;3.70;99.90;;;;;;5017578;28;20504;-62
2023/02/06 07:36:58;;;;;;;19.73;15.77;;;4.00;99.90;;;;;;5019885;28;20287;-64
2023/02/06 07:39:24;;;;;;;24.00;15.98;;;4.30;99.90;;;;;;5001856;28;20188;-65
2023/02/06 07:41:50;;;;;;;21.00;17.83;;;3.60;99.90;;;;;;5019058;28;20296;-65
2023/02/06 07:44:15;;;;;;;21.57;16.20;;;3.80;99.90;;;;;;5019861;28;20446;-65
2023/02/06 07:46:42;;;;;;;19.00;15.27;;;4.00;99.90;;;;;;5019386;28;20323;-64
2023/02/06 07:49:10;;;;;;;22.90;16.80;;;3.90;99.90;;;;;;5017794;28;20225;-65
2023/02/06 07:51:36;;;;;;;21.17;15.82;;;4.40;99.90;;;;;;4997614;28;20733;-65
2023/02/06 07:54:01;;;;;;;19.90;13.40;;;5.00;99.90;;;;;;5013075;28;20271;-64
2023/02/06 07:56:27;;;;;;;18.70;14.50;;;4.00;99.90;;;;;;5020157;28;20664;-64
2023/02/06 07:58:54;;;;;;;18.93;15.23;;;3.70;99.90;;;;;;5015975;28;20275;-64
2023/02/06 08:01:21;;;;;;;18.92;15.05;;;4.30;99.90;;;;;;5018430;28;20230;-66
2023/02/06 08:03:56;;;;;;;18.73;13.77;;;3.90;99.90;;;;;;5020294;28;20224;-65
2023/02/06 08:06:23;;;;;;;16.75;13.65;;;4.10;99.90;;;;;;5019534;28;20558;-64
2023/02/06 08:08:49;;;;;;;18.25;13.73;;;4.50;99.90;;;;;;5012293;28;20198;-65
2023/02/06 08:11:18;;;;;;;17.27;13.15;;;4.60;99.90;;;;;;5016700;28;20213;-67
2023/02/06 08:13:45;;;;;;;15.52;12.43;;;3.50;99.90;;;;;;5002983;28;20324;-66
2023/02/06 08:16:17;;;;;;;17.20;12.85;;;4.10;99.90;;;;;;5000138;28;20589;-66
2023/02/06 08:18:43;;;;;;;19.40;15.10;;;3.60;99.90;;;;;;5014877;28;20605;-66
2023/02/06 08:21:15;;;;;;;17.90;12.10;;;4.00;99.90;;;;;;5018131;28;20182;-66
2023/02/06 08:23:41;;;;;;;14.90;12.07;;;4.30;99.90;;;;;;5016823;28;20194;-65
2023/02/06 08:26:17;;;;;;;14.60;12.77;;;4.20;99.90;;;;;;5018713;28;20234;-64
2023/02/06 08:28:45;;;;;;;16.10;12.65;;;4.00;99.90;;;;;;5016449;28;20187;-65
2023/02/06 08:31:13;;;;;;;15.88;11.80;;;4.00;99.90;;;;;;5019977;28;20684;-66
2023/02/06 08:33:39;;;;;;;15.57;12.63;;;4.40;99.90;;;;;;5018858;28;20198;-67
2023/02/06 08:36:06;;;;;;;14.70;11.75;;;4.20;99.90;;;;;;5014564;28;20204;-67
2023/02/06 08:38:32;;;;;;;17.00;12.93;;;4.10;99.90;;;;;;5019052;28;20250;-65
2023/02/06 08:40:57;;;;;;;13.20;11.80;;;4.10;99.90;;;;;;5016893;28;20660;-67
2023/02/06 08:43:23;;;;;;;20.73;14.37;;;4.40;99.90;;;;;;5019235;28;20271;-65
2023/02/06 08:45:50;;;;;;;15.60;12.57;;;3.60;99.90;;;;;;5020979;28;20203;-66
2023/02/06 08:48:16;;;;;;;16.58;11.23;;;4.40;99.90;;;;;;5018766;28;20190;-68
2023/02/06 08:50:43;;;;;;;15.07;11.50;;;4.50;99.90;;;;;;5024256;28;20862;-66
2023/02/06 08:53:09;;;;;;;15.00;12.27;;;4.30;99.90;;;;;;5015075;28;20203;-66
2023/02/06 08:55:34;;;;;;;12.02;9.73;;;4.40;99.90;;;;;;5025041;28;20196;-67
2023/02/06 08:58:00;;;;;;;12.67;10.07;;;4.30;99.90;;;;;;5016032;28;20188;-64
2023/02/06 09:00:25;;;;;;;19.53;11.33;;;4.40;99.90;;;;;;5019297;28;20206;-64
2023/02/06 09:02:52;;;;;;;13.93;10.23;;;4.20;99.90;;;;;;5017359;28;20232;-64
2023/02/06 09:05:18;;;;;;;12.95;11.07;;;4.50;99.90;;;;;;5018790;28;20279;-65
2023/02/06 09:07:44;;;;;;;10.20;9.07;;;4.40;99.90;;;;;;5018800;28;20454;-64
2023/02/06 09:10:09;;;;;;;11.53;10.33;;;4.40;99.90;;;;;;4998519;28;20265;-64
2023/02/06 09:12:35;;;;;;;10.37;9.27;;;4.30;99.90;;;;;;5019536;28;20685;-65
2023/02/06 09:15:01;;;;;;;11.30;9.80;;;4.20;99.90;;;;;;5020021;28;20187;-65
2023/02/06 09:17:30;;;;;;;11.73;9.20;;;4.50;99.90;;;;;;5019027;28;20208;-67
2023/02/06 09:19:59;;;;;;;10.13;9.10;;;3.60;99.90;;;;;;5015528;28;20270;-66
2023/02/06 09:22:25;;;;;;;11.50;9.52;;;4.10;99.90;;;;;;5016012;28;20218;-67
2023/02/06 09:24:50;;;;;;;9.63;8.50;;;4.70;99.90;;;;;;5018488;28;20220;-67
2023/02/06 09:27:16;;;;;;;12.47;9.50;;;4.10;99.90;;;;;;5015876;28;20218;-67
2023/02/06 09:29:41;;;;;;;12.80;10.17;;;4.30;99.90;;;;;;5018216;28;20202;-66
2023/02/06 09:32:07;;;;;;;12.30;10.13;;;4.50;99.90;;;;;;5017841;28;20262;-65
2023/02/06 09:34:33;;;;;;;11.43;8.70;;;3.60;99.90;;;;;;5015077;28;21049;-66
2023/02/06 09:37:04;;;;;;;12.52;9.48;;;4.20;99.90;;;;;;5016378;28;20714;-66
2023/02/06 09:39:30;;;;;;;10.15;8.68;;;4.30;99.90;;;;;;5015797;28;20200;-67
2023/02/06 09:42:05;;;;;;;9.90;8.50;;;4.70;99.90;;;;;;5007163;28;20684;-66
2023/02/06 09:44:33;;;;;;;12.70;8.10;;;4.40;99.90;;;;;;5016094;28;20290;-66
2023/02/06 09:47:12;;;;;;;9.25;8.25;;;4.40;99.90;;;;;;5015537;28;20207;-66
2023/02/06 09:49:47;;;;;;;12.45;7.72;;;4.80;99.90;;;;;;5016559;28;20233;-67
2023/02/06 09:52:28;;;;;;;13.98;9.35;;;4.60;99.90;;;;;;5013950;28;20646;-67
2023/02/06 09:55:12;;;;;;;9.60;7.80;;;4.60;99.90;;;;;;5015209;28;20693;-65
2023/02/06 09:57:48;;;;;;;9.32;7.38;;;4.60;99.90;;;;;;5015080;28;20200;-65
2023/02/06 10:00:38;;;;;;;9.07;6.78;;;4.50;99.90;;;;;;5003215;28;20435;-67
2023/02/06 10:03:30;;;;;;;7.65;6.80;;;4.50;99.90;;;;;;5020837;28;20699;-66
2023/02/06 10:06:22;;;;;;;6.90;5.95;;;4.60;99.90;;;;;;5000597;28;20721;-66
2023/02/06 10:08:48;;;;;;;8.27;7.07;;;4.80;99.90;;;;;;4996568;28;20188;-69
2023/02/06 10:11:19;;;;;;;8.47;6.77;;;4.60;99.90;;;;;;5014988;28;20226;-65
2023/02/06 10:13:54;;;;;;;10.85;7.35;;;4.60;99.90;;;;;;5015303;28;20643;-66
2023/02/06 10:16:37;;;;;;;10.35;7.43;;;4.50;99.90;;;;;;5018506;28;20676;-64
2023/02/06 10:19:21;;;;;;;10.63;7.97;;;4.80;99.90;;;;;;5013962;28;20228;-65
2023/02/06 10:22:19;;;;;;;8.90;6.88;;;4.80;99.90;;;;;;5015875;28;20294;-65
2023/02/06 10:25:12;;;;;;;8.07;6.93;;;4.90;99.90;;;;;;4984442;28;20221;-65
2023/02/06 10:27:41;;;;;;;8.32;7.30;;;5.00;99.90;;;;;;5014005;28;20216;-65
2023/02/06 10:30:16;;;;;;;8.25;6.55;;;4.90;99.90;;;;;;5020111;28;20207;-64
2023/02/06 10:33:14;;;;;;;6.80;5.22;;;5.00;99.90;;;;;;4994588;28;20290;-67
2023/02/06 10:35:58;;;;;;;7.13;6.10;;;4.80;99.90;;;;;;5017362;28;20211;-67
2023/02/06 10:38:37;;;;;;;12.20;7.40;;;4.70;99.90;;;;;;5018353;28;20188;-67
2023/02/06 10:41:44;;;;;;;10.48;7.20;;;4.80;99.90;;;;;;5014364;28;20280;-67
2023/02/06 10:44:26;;;;;;;7.90;5.78;;;4.70;99.90;;;;;;4942718;28;20201;-68
2023/02/06 10:46:53;;;;;;;11.43;4.70;;;4.80;99.90;;;;;;5010193;28;20257;-66
2023/02/06 10:49:37;;;;;;;5.30;4.80;;;4.80;99.90;;;;;;5013071;28;20576;-66
2023/02/06 10:52:21;;;;;;;5.65;4.45;;;4.60;99.90;;;;;;4997976;28;20186;-65
2023/02/06 10:54:52;;;;;;;6.10;5.50;;;4.70;99.90;;;;;;5014613;28;20673;-66
2023/02/06 10:57:23;;;;;;;6.43;5.03;;;5.00;99.90;;;;;;5022319;28;20212;-66
2023/02/06 10:59:51;;;;;;;8.40;5.40;;;4.90;99.90;;;;;;5009209;28;20624;-66
2023/02/06 11:02:37;;;;;;;7.00;4.55;;;4.90;99.90;;;;;;5017859;28;20687;-66
2023/02/06 11:05:22;;;;;;;9.07;4.90;;;4.80;99.90;;;;;;5025283;28;20299;-65
2023/02/06 11:07:53;;;;;;;5.15;3.88;;;5.00;99.90;;;;;;5021297;28;20287;-67
2023/02/06 11:10:24;;;;;;;4.00;3.50;;;5.00;99.90;;;;;;5019383;28;20581;-67
2023/02/06 11:13:01;;;;;;;7.72;5.75;;;4.90;99.90;;;;;;5020841;28;20655;-67
2023/02/06 11:16:04;;;;;;;4.05;3.65;;;4.70;99.80;;;;;;5011849;28;20237;-67
2023/02/06 11:18:38;;;;;;;5.75;4.05;;;4.60;99.50;;;;;;5015547;28;20200;-67
2023/02/06 11:21:04;;;;;;;4.32;3.58;;;4.80;99.90;;;;;;5017570;28;20993;-67
2023/02/06 11:23:33;;;;;;;5.45;4.43;;;5.00;99.60;;;;;;5021019;28;20196;-67
2023/02/06 11:26:14;;;;;;;3.80;3.50;;;4.40;99.20;;;;;;5021374;28;20209;-67
2023/02/06 11:28:55;;;;;;;3.85;3.25;;;4.50;98.50;;;;;;5019956;28;20181;-67
2023/02/06 11:31:44;;;;;;;2.95;2.75;;;5.00;98.90;;;;;;5021184;28;20259;-67
2023/02/06 11:34:55;;;;;;;3.75;3.03;;;5.00;98.30;;;;;;5022006;28;20196;-67
2023/02/06 11:37:34;;;;;;;6.78;4.10;;;5.00;98.20;;;;;;5019316;28;20235;-64
2023/02/06 11:40:21;;;;;;;4.25;3.85;;;5.00;98.80;;;;;;5018006;28;20310;-66
2023/02/06 11:43:06;;;;;;;5.55;4.40;;;5.00;98.90;;;;;;5022246;28;20189;-66
2023/02/06 11:45:33;;;;;;;3.90;3.50;;;5.40;98.00;;;;;;5015548;28;20186;-66
2023/02/06 11:47:59;;;;;;;5.38;4.40;;;5.70;98.40;;;;;;5015564;28;20256;-66
2023/02/06 11:50:35;;;;;;;4.43;4.00;;;5.10;97.20;;;;;;5016554;28;20218;-67
2023/02/06 11:53:10;;;;;;;4.78;3.60;;;5.20;97.80;;;;;;5018186;28;20188;-67
2023/02/06 11:55:38;;;;;;;4.68;4.00;;;5.50;97.20;;;;;;5018447;28;20262;-66
2023/02/06 11:58:12;;;;;;;6.95;3.97;;;5.30;97.50;;;;;;4997982;28;20587;-67
2023/02/06 12:00:51;;;;;;;4.95;4.55;;;5.40;97.00;;;;;;5018271;28;20189;-67
2023/02/06 12:03:34;;;;;;;6.40;5.30;;;5.30;97.60;;;;;;5014442;28;20563;-65
2023/02/06 12:06:14;;;;;;;5.72;4.53;;;5.50;97.90;;;;;;5013931;28;20300;-65
2023/02/06 12:08:48;;;;;;;5.00;4.50;;;5.50;97.70;;;;;;5021271;28;20193;-66
2023/02/06 12:11:23;;;;;;;5.05;4.55;;;5.10;97.50;;;;;;5016688;28;20201;-66
2023/02/06 12:14:21;;;;;;;8.63;5.75;;;5.10;97.90;;;;;;5013037;28;20190;-66
2023/02/06 12:16:47;;;;;;;6.28;4.40;;;5.30;98.20;;;;;;5009822;28;20247;-66
2023/02/06 12:19:32;;;;;;;9.43;4.73;;;4.90;98.30;;;;;;5015568;28;20616;-66
2023/02/06 12:22:14;;;;;;;6.07;5.35;;;5.30;98.60;;;;;;5013743;28;20446;-66
2023/02/06 12:24:45;;;;;;;7.60;4.75;;;5.10;98.60;;;;;;5022414;28;20670;-64
2023/02/06 12:27:28;;;;;;;6.28;5.20;;;5.20;98.30;;;;;;5022731;28;20273;-67
2023/02/06 12:30:06;;;;;;;5.68;5.15;;;5.10;98.50;;;;;;5016061;28;20236;-65
2023/02/06 12:32:37;;;;;;;7.30;5.78;;;5.10;98.30;;;;;;5015792;28;20400;-67
2023/02/06 12:35:13;;;;;;;6.38;5.72;;;5.60;98.90;;;;;;5015696;28;20202;-67
2023/02/06 12:37:58;;;;;;;6.25;5.35;;;5.10;99.20;;;;;;5017305;28;20204;-66
2023/02/06 12:40:37;;;;;;;7.97;7.15;;;4.90;98.90;;;;;;5016856;28;20186;-66
2023/02/06 12:43:12;;;;;;;6.50;5.60;;;4.50;99.60;;;;;;5012011;28;20180;-66
2023/02/06 12:46:00;;;;;;;7.55;6.07;;;5.40;99.90;;;;;;5014430;28;20218;-66
2023/02/06 12:48:55;;;;;;;7.30;5.47;;;5.10;99.90;;;;;;5012507;28;20752;-65
2023/02/06 12:51:20;;;;;;;6.57;5.60;;;5.20;99.90;;;;;;5007562;28;20209;-68
2023/02/06 12:53:59;;;;;;;8.53;5.53;;;4.80;99.90;;;;;;5016018;28;20272;-65
2023/02/06 12:56:40;;;;;;;7.25;6.28;;;4.90;99.90;;;;;;5016417;28;20215;-65
2023/02/06 12:59:09;;;;;;;6.13;5.28;;;4.90;99.90;;;;;;5017024;28;20240;-64